KMTO/MTO METAR and TAF weather

Enter ICAO airport designator
Station Type Date Time Source
KMTO METAR 2019/12/08 16:53 UTC NOAA

KMTO 081653Z AUTO 20010KT 8SM CLR 08/04 A3001 RMK AO2 SLP165 T00780044


Station Type Date Time Source
KMTO Decoded METAR 2019/12/08 16:53 UTC NOAA

MATTOON/CHARLESTON COLES CO, IL, United States (KMTO) 39-28N 88-16W 214M
Dec 08, 2019 - 11:53 AM EST / 2019.12.08 1653 UTC
Wind: from the SSW (200 degrees) at 12 MPH (10 KT):0
Visibility: 8 mile(s):0
Sky conditions: clear
Temperature: 46.0 F (7.8 C)
Dew Point: 39.9 F (4.4 C)
Relative Humidity: 79%
Pressure (altimeter): 30.01 in. Hg (1016 hPa)
ob: KMTO 081653Z AUTO 20010KT 8SM CLR 08/04 A3001 RMK AO2 SLP165 T00780044
cycle: 17

Station Type Date Time Source
KMTO TAF UTC NOAA

Error!

Example: see airport list